createdAt,value
2022-09-13T00:00:37.970Z,1012.068848
2022-09-13T00:01:37.367Z,1012.068848
2022-09-13T00:02:32.574Z,1012.064392
2022-09-13T00:03:32.911Z,1012.00238
2022-09-13T00:04:27.575Z,1012.038269
2022-09-13T00:05:29.924Z,1012.049683
2022-09-13T00:06:30.090Z,1012.041748
2022-09-13T00:07:29.347Z,1011.963867
2022-09-13T00:08:23.927Z,1011.951599
2022-09-13T00:09:21.149Z,1011.885071
2022-09-13T00:10:20.103Z,1011.880676
2022-09-13T00:11:20.948Z,1011.895325
2022-09-13T00:12:23.388Z,1011.907166
2022-09-13T00:13:20.533Z,1011.833191
2022-09-13T00:14:20.546Z,1011.810059
2022-09-13T00:15:15.312Z,1011.782898
2022-09-13T00:16:15.062Z,1011.731628
2022-09-13T00:17:21.065Z,1011.805603
2022-09-13T00:18:21.827Z,1011.808594
2022-09-13T00:19:17.020Z,1011.785461
2022-09-13T00:20:19.951Z,1011.792847
2022-09-13T00:21:14.031Z,1011.820007
2022-09-13T00:22:13.799Z,1011.801147
2022-09-13T00:23:10.279Z,1011.839661
2022-09-13T00:24:12.309Z,1011.850891
2022-09-13T00:25:59.161Z,1011.73114
2022-09-13T00:26:21.742Z,1011.736084
2022-09-13T00:27:25.643Z,1011.665466
2022-09-13T00:28:25.602Z,1011.697083
2022-09-13T00:29:20.945Z,1011.654175
2022-09-13T00:30:21.047Z,1011.630371
2022-09-13T00:31:19.257Z,1011.571655
2022-09-13T00:32:22.303Z,1011.610168
2022-09-13T00:33:18.518Z,1011.555054
2022-09-13T00:35:21.397Z,1011.608765
2022-09-13T00:36:21.110Z,1011.593079
2022-09-13T00:37:17.761Z,1011.639099
2022-09-13T00:38:18.648Z,1011.572815
2022-09-13T00:40:13.882Z,1011.564453
2022-09-13T00:41:15.022Z,1011.521667
2022-09-13T00:42:15.152Z,1011.521667
2022-09-13T00:43:15.011Z,1011.548767
2022-09-13T00:44:13.023Z,1011.560181
2022-09-13T00:45:16.444Z,1011.584229
2022-09-13T00:46:12.098Z,1011.611938
2022-09-13T00:47:21.879Z,1011.600525
2022-09-13T00:48:14.450Z,1011.573364
2022-09-13T00:49:18.028Z,1011.593079
2022-09-13T00:50:12.244Z,1011.593079
2022-09-13T00:51:13.960Z,1011.554626
2022-09-13T00:52:14.070Z,1011.582214
2022-09-13T00:53:13.963Z,1011.558411
2022-09-13T00:54:09.060Z,1011.57782
2022-09-13T00:55:12.673Z,1011.596924
2022-09-13T00:56:06.804Z,1011.589111
2022-09-13T00:57:09.239Z,1011.546265
2022-09-13T00:58:02.176Z,1011.589111
2022-09-13T00:59:08.217Z,1011.611938
2022-09-13T01:00:00.625Z,1011.584839
2022-09-13T01:01:01.687Z,1011.654663
2022-09-13T01:01:57.520Z,1011.568909
2022-09-13T01:02:57.219Z,1011.639099
2022-09-13T01:03:52.561Z,1011.588623
2022-09-13T01:04:52.364Z,1011.599915
2022-09-13T01:05:47.695Z,1011.645874
2022-09-13T01:06:47.452Z,1011.553162
2022-09-13T01:07:47.457Z,1011.568481
2022-09-13T01:08:44.721Z,1011.568481
2022-09-13T01:10:41.517Z,1011.464966
2022-09-13T01:11:44.134Z,1011.515564
2022-09-13T01:12:41.147Z,1011.45343
2022-09-13T01:13:42.488Z,1011.562012
2022-09-13T01:14:37.257Z,1011.51178
2022-09-13T01:15:36.929Z,1011.495911
2022-09-13T01:16:33.099Z,1011.44165
2022-09-13T01:17:36.637Z,1011.453003
2022-09-13T01:18:29.409Z,1011.498962
2022-09-13T01:19:29.047Z,1011.534424
2022-09-13T01:21:12.188Z,1011.52002
2022-09-13T01:21:57.246Z,1011.464355
2022-09-13T01:22:55.710Z,1011.433594
2022-09-13T01:23:57.985Z,1011.437195
2022-09-13T01:24:59.013Z,1011.521851
2022-09-13T01:25:53.248Z,1011.525574
2022-09-13T01:26:57.307Z,1011.431702
2022-09-13T01:27:55.792Z,1011.516663
2022-09-13T01:28:52.852Z,1011.434204
2022-09-13T01:29:51.832Z,1011.49646
2022-09-13T01:30:58.414Z,1011.391846
2022-09-13T01:31:54.795Z,1011.449219
2022-09-13T01:32:56.766Z,1011.433411
2022-09-13T01:33:49.598Z,1011.398865
2022-09-13T01:34:49.351Z,1011.40625
2022-09-13T01:35:44.562Z,1011.379089
2022-09-13T01:36:43.602Z,1011.336243
2022-09-13T01:37:39.108Z,1011.328735
2022-09-13T01:38:38.181Z,1011.386047
2022-09-13T01:39:36.182Z,1011.374634
2022-09-13T01:40:34.845Z,1011.343262
2022-09-13T01:41:36.786Z,1011.374146
2022-09-13T01:42:32.392Z,1011.30426
2022-09-13T01:43:32.722Z,1011.342651
2022-09-13T01:44:27.257Z,1011.256836
2022-09-13T01:45:32.490Z,1011.338196
2022-09-13T01:46:24.493Z,1011.202637
2022-09-13T01:47:23.056Z,1011.280151
2022-09-13T01:48:22.565Z,1011.26123
2022-09-13T01:50:24.536Z,1011.311035
2022-09-13T01:51:24.190Z,1011.256836
2022-09-13T01:52:20.662Z,1011.288391
2022-09-13T01:53:23.231Z,1011.187439
2022-09-13T01:54:17.139Z,1011.277039
2022-09-13T01:55:21.543Z,1011.200073
2022-09-13T01:56:15.136Z,1011.278931
2022-09-13T01:57:18.469Z,1011.313599
2022-09-13T01:58:13.130Z,1011.329285
2022-09-13T02:00:19.713Z,1011.225952
2022-09-13T02:00:44.326Z,1011.379395
2022-09-13T02:01:48.164Z,1011.327393
2022-09-13T02:02:47.828Z,1011.258667
2022-09-13T02:03:46.004Z,1011.295898
2022-09-13T02:04:45.443Z,1011.241211
2022-09-13T02:05:43.460Z,1011.201294
2022-09-13T02:06:43.169Z,1011.248047
2022-09-13T02:07:41.185Z,1011.275146
2022-09-13T02:08:43.916Z,1011.298035
2022-09-13T02:09:39.313Z,1011.293518
2022-09-13T02:10:45.131Z,1011.27002
2022-09-13T02:11:38.704Z,1011.338928
2022-09-13T02:12:40.297Z,1011.296143
2022-09-13T02:13:34.832Z,1011.283997
2022-09-13T02:14:36.777Z,1011.16748
2022-09-13T02:15:34.814Z,1011.288269
2022-09-13T02:16:35.225Z,1011.315369
2022-09-13T02:17:31.575Z,1011.288269
2022-09-13T02:18:31.271Z,1011.287231
2022-09-13T02:19:26.581Z,1011.271545
2022-09-13T02:20:25.748Z,1011.321899
2022-09-13T02:21:21.312Z,1011.306091
2022-09-13T02:22:20.957Z,1011.301575
2022-09-13T02:23:18.839Z,1011.297302
2022-09-13T02:25:14.668Z,1011.277527
2022-09-13T02:26:13.935Z,1011.282043
2022-09-13T02:27:14.842Z,1011.317505
2022-09-13T02:28:12.785Z,1011.355835
2022-09-13T02:29:14.109Z,1011.258789
2022-09-13T02:30:06.586Z,1011.324341
2022-09-13T02:31:08.907Z,1011.312988
2022-09-13T02:32:01.285Z,1011.320496
2022-09-13T02:33:09.065Z,1011.317505
2022-09-13T02:37:30.067Z,1011.147949
2022-09-13T02:38:51.370Z,1011.184387
2022-09-13T02:39:57.988Z,1011.161926
2022-09-13T02:40:59.414Z,1011.219482
2022-09-13T02:41:54.611Z,1011.133667
2022-09-13T02:42:54.198Z,1011.197083
2022-09-13T02:43:50.963Z,1011.181213
2022-09-13T02:45:52.438Z,1011.144836
2022-09-13T02:46:52.126Z,1011.125916
2022-09-13T02:47:48.529Z,1011.177734
2022-09-13T02:48:47.315Z,1011.128357
2022-09-13T02:49:43.603Z,1011.165283
2022-09-13T02:50:43.029Z,1011.155823
2022-09-13T02:51:39.311Z,1011.158386
2022-09-13T02:52:37.522Z,1011.130005
2022-09-13T02:53:36.615Z,1011.062683
2022-09-13T02:54:34.046Z,1011.119202
2022-09-13T02:55:37.632Z,1011.118652
2022-09-13T02:56:39.448Z,1011.101563
2022-09-13T02:57:41.613Z,1011.155334
2022-09-13T02:58:40.866Z,1011.15094
2022-09-13T02:59:38.718Z,1011.170471
2022-09-13T03:00:31.890Z,1011.186096
2022-09-13T03:01:32.829Z,1011.15094
2022-09-13T03:02:28.046Z,1011.263062
2022-09-13T03:03:26.218Z,1011.297119
2022-09-13T03:04:24.210Z,1011.273376
2022-09-13T03:05:24.728Z,1011.225952
2022-09-13T03:06:19.205Z,1011.253113
2022-09-13T03:07:27.942Z,1011.256836
2022-09-13T03:08:19.784Z,1011.256836
2022-09-13T03:09:20.883Z,1011.31427
2022-09-13T03:10:12.472Z,1011.240906
2022-09-13T03:11:11.223Z,1011.29071
2022-09-13T03:12:04.475Z,1011.310547
2022-09-13T03:13:03.213Z,1011.294739
2022-09-13T03:13:56.653Z,1011.306091
2022-09-13T03:14:57.088Z,1011.351929
2022-09-13T03:15:54.288Z,1011.347534
2022-09-13T03:16:57.778Z,1011.347107
2022-09-13T03:17:55.951Z,1011.320007
2022-09-13T03:18:50.129Z,1011.331238
2022-09-13T03:19:47.635Z,1011.365906
2022-09-13T03:20:45.611Z,1011.397461
2022-09-13T03:21:49.628Z,1011.351501
2022-09-13T03:22:45.914Z,1011.374146
2022-09-13T03:23:47.031Z,1011.420105
2022-09-13T03:24:39.134Z,1011.485535
2022-09-13T03:25:40.765Z,1011.485535
2022-09-13T03:26:38.604Z,1011.41571
2022-09-13T03:27:42.402Z,1011.408203
2022-09-13T03:28:38.075Z,1011.442749
2022-09-13T03:31:48.824Z,1011.401306
2022-09-13T03:33:19.058Z,1011.392517
2022-09-13T03:34:02.183Z,1011.427551
2022-09-13T03:34:59.781Z,1011.307556
2022-09-13T03:35:59.927Z,1011.410828
2022-09-13T03:36:56.002Z,1011.320435
2022-09-13T03:38:03.978Z,1011.435364
2022-09-13T03:40:09.669Z,1011.397522
2022-09-13T03:41:04.850Z,1011.438599
2022-09-13T03:42:06.861Z,1011.418884
2022-09-13T03:43:10.649Z,1011.340027
2022-09-13T03:45:04.461Z,1011.361267
2022-09-13T03:46:06.225Z,1011.357239
2022-09-13T03:47:07.631Z,1011.33313
2022-09-13T03:48:00.176Z,1011.340576
2022-09-13T03:49:04.861Z,1011.317383
2022-09-13T03:49:57.359Z,1011.309143
2022-09-13T03:50:56.560Z,1011.277466
2022-09-13T03:51:52.174Z,1011.327271
2022-09-13T03:52:51.632Z,1011.249817
2022-09-13T03:53:50.026Z,1011.272522
2022-09-13T03:54:50.730Z,1011.256714
2022-09-13T03:55:45.968Z,1011.271729
2022-09-13T03:56:44.802Z,1011.22876
2022-09-13T03:57:40.201Z,1011.189209
2022-09-13T03:58:41.756Z,1011.19281
2022-09-13T03:59:34.645Z,1011.16571
2022-09-13T04:00:37.051Z,1011.188354
2022-09-13T04:01:39.600Z,1011.183899
2022-09-13T04:02:33.205Z,1011.137512
2022-09-13T04:03:31.025Z,1011.164612
2022-09-13T04:05:26.759Z,1011.179504
2022-09-13T04:06:23.161Z,1011.163574
2022-09-13T04:07:24.446Z,1011.256348
2022-09-13T04:08:20.271Z,1011.170532
2022-09-13T04:09:17.613Z,1011.174438
2022-09-13T04:10:20.205Z,1011.161804
2022-09-13T04:11:16.691Z,1011.130188
2022-09-13T04:12:18.541Z,1011.149719
2022-09-13T04:13:11.748Z,1011.179871
2022-09-13T04:14:14.638Z,1011.095581
2022-09-13T04:15:09.890Z,1011.149841
2022-09-13T04:16:08.951Z,1011.145874
2022-09-13T04:17:40.107Z,1011.12323
2022-09-13T04:18:19.267Z,1011.065979
2022-09-13T04:19:17.715Z,1011.136597
2022-09-13T04:20:19.136Z,1011.128479
2022-09-13T04:21:20.850Z,1011.170532
2022-09-13T04:22:23.358Z,1011.111877
2022-09-13T04:23:17.906Z,1011.096069
2022-09-13T04:25:15.953Z,1011.068542
2022-09-13T04:26:18.485Z,1011.161072
2022-09-13T04:27:14.139Z,1011.098633
2022-09-13T04:28:15.247Z,1011.094116
2022-09-13T04:30:18.374Z,1011.105469
2022-09-13T04:31:13.859Z,1011.055054
2022-09-13T04:32:15.587Z,1011.093567
2022-09-13T04:33:13.613Z,1011.08136
2022-09-13T04:34:16.202Z,1011.057495
2022-09-13T04:35:12.762Z,1011.158264
2022-09-13T04:36:08.879Z,1011.146912
2022-09-13T04:37:11.577Z,1011.193054
2022-09-13T04:38:09.973Z,1011.119751
2022-09-13T04:39:09.989Z,1011.200989
2022-09-13T04:40:04.605Z,1011.154663
2022-09-13T04:41:07.701Z,1011.259644
2022-09-13T04:42:06.965Z,1011.198608
2022-09-13T04:43:06.824Z,1011.222229
2022-09-13T04:44:02.605Z,1011.261169
2022-09-13T04:45:03.072Z,1011.211426
2022-09-13T04:46:00.242Z,1011.141541
2022-09-13T04:47:07.335Z,1011.199646
2022-09-13T04:48:05.098Z,1011.229614
2022-09-13T04:49:02.004Z,1011.229614
2022-09-13T04:49:57.168Z,1011.357666
2022-09-13T04:50:57.128Z,1011.322266
2022-09-13T04:51:57.334Z,1011.279968
2022-09-13T04:53:01.288Z,1011.283264
2022-09-13T04:53:55.514Z,1011.256165
2022-09-13T04:54:57.258Z,1011.237061
2022-09-13T04:55:55.122Z,1011.232605
2022-09-13T04:57:01.521Z,1011.244019
2022-09-13T04:57:55.461Z,1011.290222
2022-09-13T04:58:57.465Z,1011.352356
2022-09-13T05:00:09.440Z,1011.3479
2022-09-13T05:01:16.260Z,1011.253784
2022-09-13T05:02:13.660Z,1011.362183
2022-09-13T05:03:18.950Z,1011.384827
2022-09-13T05:04:15.904Z,1011.427673
2022-09-13T05:05:11.853Z,1011.392761
2022-09-13T05:06:14.148Z,1011.359253
2022-09-13T05:07:09.426Z,1011.34436
2022-09-13T05:08:12.095Z,1011.305847
2022-09-13T05:10:05.402Z,1011.271057
2022-09-13T05:11:05.722Z,1011.29364
2022-09-13T05:12:49.504Z,1011.279968
2022-09-13T05:13:39.167Z,1011.262573
2022-09-13T05:14:41.814Z,1011.21283
2022-09-13T05:15:38.055Z,1011.21283
2022-09-13T05:16:34.809Z,1011.270142
2022-09-13T05:17:34.764Z,1011.281311
2022-09-13T05:18:31.155Z,1011.32373
2022-09-13T05:19:40.227Z,1011.338013
2022-09-13T05:20:35.569Z,1011.279968
2022-09-13T05:21:36.924Z,1011.271912
2022-09-13T05:22:32.243Z,1011.292297
2022-09-13T05:23:30.252Z,1011.280945
2022-09-13T05:25:27.476Z,1011.287781
2022-09-13T05:26:29.712Z,1011.275513
2022-09-13T05:27:21.654Z,1011.305847
2022-09-13T05:28:21.066Z,1011.232605
2022-09-13T05:29:19.194Z,1011.244019
2022-09-13T05:30:28.754Z,1011.220215
2022-09-13T05:31:27.135Z,1011.296997
2022-09-13T05:32:26.802Z,1011.191772
2022-09-13T05:33:26.260Z,1011.273071
2022-09-13T05:34:22.798Z,1011.330688
2022-09-13T05:34:42.482Z,1011.279968
2022-09-13T05:35:42.393Z,1011.24939
2022-09-13T05:36:43.830Z,1011.311646
2022-09-13T05:37:40.084Z,1011.319275
2022-09-13T05:38:41.563Z,1011.327332
2022-09-13T05:40:00.716Z,1011.292175
2022-09-13T05:40:09.786Z,1011.292175
2022-09-13T05:40:11.988Z,1011.292175
2022-09-13T05:40:47.958Z,1011.277893
2022-09-13T05:41:43.321Z,1011.313904
2022-09-13T05:42:45.266Z,1011.294739
2022-09-13T05:43:41.017Z,1011.271057
2022-09-13T05:44:40.275Z,1011.259644
2022-09-13T05:45:35.475Z,1011.235901
2022-09-13T05:46:36.670Z,1011.390808
2022-09-13T05:47:32.983Z,1011.363647
2022-09-13T05:48:31.104Z,1011.312805
2022-09-13T05:49:33.319Z,1011.304993
2022-09-13T05:50:54.313Z,1011.316101
2022-09-13T05:50:56.922Z,1011.316101
2022-09-13T05:50:57.440Z,1011.316101
2022-09-13T05:52:25.653Z,1011.374084
2022-09-13T05:53:18.011Z,1011.434875
2022-09-13T05:54:17.787Z,1011.427917
2022-09-13T05:55:14.035Z,1011.501282
2022-09-13T05:56:16.896Z,1011.427917
2022-09-13T05:57:13.265Z,1011.443665
2022-09-13T05:58:13.372Z,1011.474121
2022-09-13T05:59:11.522Z,1011.438599
2022-09-13T06:00:12.492Z,1011.422974
2022-09-13T06:01:50.991Z,1011.425903
2022-09-13T06:02:17.483Z,1011.434875
2022-09-13T06:03:18.193Z,1011.428711
2022-09-13T06:05:17.551Z,1011.502319
2022-09-13T06:06:15.683Z,1011.462769
2022-09-13T06:07:13.431Z,1011.477661
2022-09-13T06:08:13.544Z,1011.45752
2022-09-13T06:10:09.241Z,1011.472656
2022-09-13T06:11:07.764Z,1011.468201
2022-09-13T06:12:09.481Z,1011.522339
2022-09-13T06:13:06.537Z,1011.498291
2022-09-13T06:14:14.943Z,1011.493774
2022-09-13T06:15:07.984Z,1011.502136
2022-09-13T06:16:13.270Z,1011.498291
2022-09-13T06:17:08.127Z,1011.498291
2022-09-13T06:18:03.828Z,1011.506592
2022-09-13T06:19:05.850Z,1011.514038
2022-09-13T06:19:59.669Z,1011.502686
2022-09-13T06:21:03.480Z,1011.486877
2022-09-13T06:22:02.723Z,1011.471252
2022-09-13T06:23:05.160Z,1011.475586
2022-09-13T06:24:01.746Z,1011.506592
2022-09-13T06:26:03.831Z,1011.506592
2022-09-13T06:27:06.806Z,1011.517944
2022-09-13T06:28:04.935Z,1011.533691
2022-09-13T06:29:03.017Z,1011.518494
2022-09-13T06:30:04.963Z,1011.475586
2022-09-13T06:30:58.367Z,1011.518494
2022-09-13T06:31:58.346Z,1011.495728
2022-09-13T06:32:53.744Z,1011.461243
2022-09-13T06:34:00.703Z,1011.410095
2022-09-13T06:34:55.412Z,1011.437256
2022-09-13T06:35:55.748Z,1011.414001
2022-09-13T06:36:53.000Z,1011.437256
2022-09-13T06:37:54.000Z,1011.328857
2022-09-13T06:38:49.504Z,1011.421387
2022-09-13T06:39:54.885Z,1011.445557
2022-09-13T06:40:49.445Z,1011.472656
2022-09-13T06:41:55.379Z,1011.407043
2022-09-13T06:43:39.045Z,1011.47522
2022-09-13T06:45:20.436Z,1011.493896
2022-09-13T06:46:24.633Z,1011.493896
2022-09-13T06:46:25.574Z,1011.493896
2022-09-13T06:47:17.252Z,1011.485657
2022-09-13T06:48:13.490Z,1011.501343
2022-09-13T06:49:12.652Z,1011.453979
2022-09-13T06:50:16.233Z,1011.450134
2022-09-13T06:51:12.553Z,1011.461365
2022-09-13T06:52:12.329Z,1011.488525
2022-09-13T06:53:07.418Z,1011.546143
2022-09-13T06:54:08.661Z,1011.538391
2022-09-13T06:55:06.714Z,1011.511169
2022-09-13T06:56:06.238Z,1011.542725
2022-09-13T06:57:05.200Z,1011.542725
2022-09-13T06:58:04.144Z,1011.534668
2022-09-13T06:58:59.438Z,1011.472778
2022-09-13T06:59:56.907Z,1011.423035
2022-09-13T07:00:56.348Z,1011.577759
2022-09-13T07:01:50.972Z,1011.450134
2022-09-13T07:02:50.141Z,1011.415039
2022-09-13T07:03:48.496Z,1011.507629
2022-09-13T07:05:51.500Z,1011.48114
2022-09-13T07:06:44.137Z,1011.439697
2022-09-13T07:07:43.408Z,1011.385437
2022-09-13T07:08:38.175Z,1011.424438
2022-09-13T07:10:34.416Z,1011.358826
2022-09-13T07:11:35.445Z,1011.455933
2022-09-13T07:12:31.749Z,1011.480103
2022-09-13T07:13:32.620Z,1011.538696
2022-09-13T07:14:25.019Z,1011.491882
2022-09-13T07:15:27.076Z,1011.477112
2022-09-13T07:16:24.577Z,1011.465759
2022-09-13T07:17:31.311Z,1011.469788
2022-09-13T07:18:26.415Z,1011.458496
2022-09-13T07:19:20.819Z,1011.471191
2022-09-13T07:20:22.088Z,1011.545715
2022-09-13T07:21:14.565Z,1011.487488
2022-09-13T07:22:14.879Z,1011.464844
2022-09-13T07:23:14.746Z,1011.473145
2022-09-13T07:24:12.747Z,1011.585449
2022-09-13T07:25:12.557Z,1011.403503
2022-09-13T07:26:07.116Z,1011.535645
2022-09-13T07:27:55.598Z,1011.521729
2022-09-13T07:28:41.900Z,1011.476318
2022-09-13T07:29:41.166Z,1011.48822
2022-09-13T07:30:41.977Z,1011.473816
2022-09-13T07:31:39.136Z,1011.454102
2022-09-13T07:32:41.843Z,1011.49707
2022-09-13T07:33:38.305Z,1011.516663
2022-09-13T07:35:37.962Z,1011.586792
2022-09-13T07:36:39.041Z,1011.532532
2022-09-13T07:37:35.677Z,1011.512756
2022-09-13T07:38:37.668Z,1011.498352
2022-09-13T07:39:34.647Z,1011.498962
2022-09-13T07:40:37.355Z,1011.487549
2022-09-13T07:41:33.767Z,1011.557983
2022-09-13T07:42:35.154Z,1011.484253
2022-09-13T07:43:31.895Z,1011.4729
2022-09-13T07:44:34.589Z,1011.515808
2022-09-13T07:45:33.662Z,1011.469543
2022-09-13T07:46:31.140Z,1011.520203
2022-09-13T07:47:32.379Z,1011.590271
2022-09-13T07:48:33.251Z,1011.574524
2022-09-13T07:49:34.385Z,1011.540283
2022-09-13T07:50:31.056Z,1011.567444
2022-09-13T07:51:35.433Z,1011.517639
2022-09-13T07:52:32.061Z,1011.498413
2022-09-13T07:53:36.671Z,1011.525635
2022-09-13T07:54:31.831Z,1011.59906
2022-09-13T07:55:31.249Z,1011.649963
2022-09-13T07:56:33.927Z,1011.576355
2022-09-13T07:57:28.144Z,1011.63855
2022-09-13T07:58:30.371Z,1011.607788
2022-09-13T07:59:31.663Z,1011.588135
2022-09-13T08:00:28.294Z,1011.615234
2022-09-13T08:01:32.826Z,1011.596497
2022-09-13T08:02:31.146Z,1011.542236
2022-09-13T08:03:34.726Z,1011.553467
2022-09-13T08:04:34.479Z,1011.612183
2022-09-13T08:04:36.504Z,1011.612183
2022-09-13T08:05:35.333Z,1011.589478
2022-09-13T08:06:30.645Z,1011.528076
2022-09-13T08:07:34.816Z,1011.586853
2022-09-13T08:08:34.869Z,1011.598694
2022-09-13T08:09:36.474Z,1011.641663
2022-09-13T08:10:34.569Z,1011.668823
2022-09-13T08:11:38.628Z,1011.582947
2022-09-13T08:14:00.940Z,1011.686279
2022-09-13T08:14:42.390Z,1011.70282
2022-09-13T08:15:43.646Z,1011.734314
2022-09-13T08:16:45.598Z,1011.734314
2022-09-13T08:17:43.080Z,1011.776611
2022-09-13T08:18:45.339Z,1011.787842
2022-09-13T08:20:42.102Z,1011.791321
2022-09-13T08:21:46.329Z,1011.856873
2022-09-13T08:22:44.208Z,1011.849243
2022-09-13T08:23:47.441Z,1011.7677
2022-09-13T08:24:43.882Z,1011.7677
2022-09-13T08:25:48.233Z,1011.911194
2022-09-13T08:26:45.119Z,1011.802551
2022-09-13T08:27:41.846Z,1011.815002
2022-09-13T08:28:45.940Z,1011.865723
2022-09-13T08:29:40.324Z,1011.765076
2022-09-13T08:30:42.433Z,1011.815796
2022-09-13T08:31:39.759Z,1011.742371
2022-09-13T08:32:41.571Z,1011.820251
2022-09-13T08:33:44.211Z,1011.770264
2022-09-13T08:33:46.746Z,1011.770264
2022-09-13T08:35:39.353Z,1011.72644
2022-09-13T08:36:39.851Z,1011.78125
2022-09-13T08:37:42.962Z,1011.812805
2022-09-13T08:38:38.340Z,1011.762817
2022-09-13T08:39:42.941Z,1011.712769
2022-09-13T08:40:37.733Z,1011.752136
2022-09-13T08:41:42.657Z,1011.75647
2022-09-13T08:42:37.209Z,1011.675354
2022-09-13T08:43:42.030Z,1011.74231
2022-09-13T08:44:37.243Z,1011.676636
2022-09-13T08:45:41.783Z,1011.712524
2022-09-13T08:46:37.851Z,1011.689697
2022-09-13T08:47:37.307Z,1011.693542
2022-09-13T08:48:41.281Z,1011.651367
2022-09-13T08:49:36.491Z,1011.683289
2022-09-13T08:50:40.894Z,1011.676208
2022-09-13T08:51:35.812Z,1011.614807
2022-09-13T08:52:39.137Z,1011.681152
2022-09-13T08:53:38.586Z,1011.634827
2022-09-13T08:54:36.764Z,1011.592041
2022-09-13T08:55:38.615Z,1011.626892
2022-09-13T08:56:35.830Z,1011.580505
2022-09-13T08:57:37.701Z,1011.61554
2022-09-13T08:58:36.671Z,1011.658386
2022-09-13T08:59:41.276Z,1011.604065
2022-09-13T09:00:36.306Z,1011.608398
2022-09-13T09:01:38.061Z,1011.558472
2022-09-13T09:02:35.449Z,1011.562805
2022-09-13T09:04:14.866Z,1011.593323
2022-09-13T09:06:40.380Z,1011.517029
2022-09-13T09:07:05.386Z,1011.542969
2022-09-13T09:08:02.176Z,1011.544373
2022-09-13T09:09:00.963Z,1011.551453
2022-09-13T09:10:54.394Z,1011.568848
2022-09-13T09:11:48.702Z,1011.53302
2022-09-13T09:12:46.853Z,1011.551331
2022-09-13T09:13:41.129Z,1011.550903
2022-09-13T09:15:33.915Z,1011.612122
2022-09-13T09:16:31.945Z,1011.560913
2022-09-13T09:17:26.159Z,1011.568115
2022-09-13T09:18:23.964Z,1011.560669
2022-09-13T09:19:18.034Z,1011.610779
2022-09-13T09:20:18.973Z,1011.556335
2022-09-13T09:21:12.106Z,1011.572144
2022-09-13T09:22:10.569Z,1011.579529
2022-09-13T09:23:04.800Z,1011.568054
2022-09-13T09:24:03.095Z,1011.572144
2022-09-13T09:25:56.164Z,1011.592102
2022-09-13T09:26:50.479Z,1011.517944
2022-09-13T09:27:48.919Z,1011.560913
2022-09-13T09:28:43.312Z,1011.60376
2022-09-13T09:29:41.446Z,1011.650818
2022-09-13T09:30:41.370Z,1011.623596
2022-09-13T09:31:32.737Z,1011.592468
2022-09-13T09:32:28.657Z,1011.623901
2022-09-13T09:33:27.272Z,1011.585144
2022-09-13T09:35:22.741Z,1011.562317
2022-09-13T09:36:14.453Z,1011.531921
2022-09-13T09:37:15.783Z,1011.598145
2022-09-13T09:38:07.280Z,1011.563599
2022-09-13T09:39:08.263Z,1011.536499
2022-09-13T09:39:59.741Z,1011.513794
2022-09-13T09:40:58.498Z,1011.510132
2022-09-13T09:41:53.797Z,1011.537354
2022-09-13T09:42:51.545Z,1011.521667
2022-09-13T09:43:45.998Z,1011.48291
2022-09-13T09:44:46.294Z,1011.50238
2022-09-13T09:46:09.986Z,1011.522522
2022-09-13T09:46:50.086Z,1011.487976
2022-09-13T09:47:49.252Z,1011.504333
2022-09-13T09:48:51.200Z,1011.52002
2022-09-13T09:50:41.702Z,1011.547546
2022-09-13T09:51:40.884Z,1011.438721
2022-09-13T09:52:40.753Z,1011.508728
2022-09-13T09:53:37.284Z,1011.4198
2022-09-13T09:55:37.426Z,1011.548584
2022-09-13T09:56:37.343Z,1011.48584
2022-09-13T09:57:33.658Z,1011.458618
2022-09-13T09:58:33.569Z,1011.455383
2022-09-13T10:00:29.612Z,1011.389709
2022-09-13T10:01:25.918Z,1011.378723
2022-09-13T10:02:28.247Z,1011.464661
2022-09-13T10:03:21.214Z,1011.41449
2022-09-13T10:04:22.343Z,1011.406799
2022-09-13T10:05:18.559Z,1011.337036
2022-09-13T10:06:18.227Z,1011.422974
2022-09-13T10:07:15.732Z,1011.348877
2022-09-13T10:08:13.712Z,1011.364441
2022-09-13T10:09:08.923Z,1011.364441
2022-09-13T10:11:04.655Z,1011.400269
2022-09-13T10:12:08.481Z,1011.451233
2022-09-13T10:13:02.848Z,1011.370056
2022-09-13T10:14:00.096Z,1011.358459
2022-09-13T10:15:55.526Z,1011.35553
2022-09-13T10:16:58.240Z,1011.34729
2022-09-13T10:17:51.393Z,1011.343994
2022-09-13T10:18:51.677Z,1011.367188
2022-09-13T10:19:47.136Z,1011.359558
2022-09-13T10:20:46.879Z,1011.371399
2022-09-13T10:21:43.047Z,1011.375549
2022-09-13T10:22:42.994Z,1011.411072
2022-09-13T10:23:39.586Z,1011.402832
2022-09-13T10:25:38.941Z,1011.31012
2022-09-13T10:26:41.651Z,1011.368713
2022-09-13T10:28:05.728Z,1011.330139
2022-09-13T10:28:45.992Z,1011.342285
2022-09-13T10:29:51.538Z,1011.373718
2022-09-13T10:30:46.653Z,1011.3078
2022-09-13T10:31:42.114Z,1011.342773
2022-09-13T10:32:41.619Z,1011.369995
2022-09-13T10:33:36.789Z,1011.315552
2022-09-13T10:34:36.493Z,1011.373718
2022-09-13T10:35:31.786Z,1011.322815
2022-09-13T10:36:52.103Z,1011.388794
2022-09-13T10:36:53.319Z,1011.388794
2022-09-13T10:36:53.681Z,1011.388794
2022-09-13T10:37:31.007Z,1011.315063
2022-09-13T10:38:26.676Z,1011.300476
2022-09-13T10:39:26.543Z,1011.374084
2022-09-13T10:41:27.169Z,1011.374329
2022-09-13T10:42:23.427Z,1011.340027
2022-09-13T10:43:24.026Z,1011.364136
2022-09-13T10:44:20.178Z,1011.313782
2022-09-13T10:46:17.270Z,1011.255005
2022-09-13T10:47:20.335Z,1011.269836
2022-09-13T10:48:17.111Z,1011.362854
2022-09-13T10:49:20.227Z,1011.351196
2022-09-13T10:50:12.959Z,1011.33551
2022-09-13T10:51:16.687Z,1011.31958
2022-09-13T10:52:14.360Z,1011.273193
2022-09-13T10:53:11.544Z,1011.354919
2022-09-13T10:54:06.952Z,1011.323975
2022-09-13T10:56:01.935Z,1011.280884
2022-09-13T10:57:00.397Z,1011.308167
2022-09-13T10:57:59.999Z,1011.273193
2022-09-13T10:58:54.936Z,1011.374207
2022-09-13T10:59:55.677Z,1011.377991
2022-09-13T11:00:51.294Z,1011.315552
2022-09-13T11:01:52.862Z,1011.377991
2022-09-13T11:02:48.284Z,1011.3349
2022-09-13T11:03:50.764Z,1011.210266
2022-09-13T11:05:41.230Z,1011.214539
2022-09-13T11:06:38.578Z,1011.194946
2022-09-13T11:07:36.809Z,1011.226013
2022-09-13T11:09:21.884Z,1011.207642
2022-09-13T11:11:00.729Z,1011.248047
2022-09-13T11:12:00.168Z,1011.228943
2022-09-13T11:12:54.830Z,1011.220703
2022-09-13T11:13:54.169Z,1011.294983
2022-09-13T11:14:50.610Z,1011.236267
2022-09-13T11:15:50.616Z,1011.220581
2022-09-13T11:16:45.875Z,1011.157776
2022-09-13T11:17:46.147Z,1011.204773